Terminal Aerodrome Forecast
Issued by NWS

Home | Current Version | Previous Version | Text Only | Print | Product List | Glossary On
Versions: 1 2 3 4 5 6 7 8 9 10 11 12 13 14 15 16 17 18 19
000
FTUS45 KBOI 191722
TAFJER
TAF
KJER 191722Z 1918/2018 25022G32KT P6SM SCT030 BKN050
      TEMPO 1918/1922 24012KT BKN008
     FM200100 24015G25KT P6SM FEW030 SCT050=

USA.gov is the U.S. government's official web portal to all federal, state and local government web resources and services.